• Join FlightAware (Why Join?)
  • Login
  • US Flag 
02:10AM EDT


 

Airport Tracker/Info


-or-


 

Live Flight TrackerFlight Track Log ✈ CES5522 ✈ 18-May-2014 ✈ ZSQD / TAO - ZSPD / PVG

Flight Track Log - Related Links

Times and Time Zones

All times are in EDT time to prevent confusion due to time zone crossing. See the CES5522 flight status page for this flight to view local times or setup timezone preferences in your user account.

Time Position Orientation Groundspeed Altitude Reporting Facility
EDT Latitude Longitude Course Direction KTS MPH feet Rate Location/Type
07:15AM 34.5895 120.8579 167° South  Level Estimated
07:16AM 34.4963 120.8842 167° South  Level Estimated
07:17AM 34.4030 120.9105 167° South  Level Estimated
07:18AM 34.3098 120.9366 167° South  Level Estimated
07:19AM 34.2166 120.9627 167° South  Level Estimated
07:20AM 34.1234 120.9888 167° South  Level Estimated
07:21AM 34.0302 121.0148 167° South  Level Estimated
07:22AM 33.9369 121.0407 167° South  Level Estimated
07:23AM 33.8437 121.0666 167° South  Level Estimated
07:24AM 33.7504 121.0924 167° South  Level Estimated
07:25AM 33.6572 121.1182 167° South  Level Estimated
07:26AM 33.5639 121.1439 167° South  Level Estimated
07:27AM 33.4707 121.1695 167° South  Level Estimated
07:28AM 33.3774 121.1951 167° South  Level Estimated
07:29AM 33.2841 121.2207 167° South  Level Estimated
07:30AM 33.1909 121.2462 167° South  Level Estimated
07:31AM 33.0976 121.2716 167° South  Level Estimated
07:32AM 33.0043 121.2970 167° South  Level Estimated
07:33AM 32.9110 121.3223 167° South  Level Estimated
07:34AM 32.8177 121.3476 167° South  Level Estimated
07:35AM 32.7244 121.3728 167° South  Level Estimated
07:36AM 32.6311 121.3980 167° South  Level Estimated
07:37AM 32.5378 121.4231 167° South  Level Estimated
07:38AM 32.4445 121.4482 167° South  Level Estimated
07:39AM 32.3511 121.4732 167° South  Level Estimated
07:40AM 32.2578 121.4981 167° South  Level Estimated
07:41AM 32.1645 121.5230 167° South  Level Estimated
07:42AM 32.0711 121.5479 167° South  Level Estimated
07:43AM 31.9778 121.5727 167° South  Level Estimated
07:44AM 31.8844 121.5975 167° South  Level Estimated
07:45AM 31.7911 121.6222 167° South  Level Estimated
07:46AM 31.6977 121.6468 167° South  Level Estimated
07:47AM 31.6044 121.6714 167° South  Level Estimated
07:48AM 31.5110 121.6960 167° South  Level Estimated
07:49AM 31.4176 121.7205 167° South  Level Estimated
07:50AM 31.3242 121.7450 167° South  Level Estimated
07:51AM 31.2309 121.7694 167° South  Level Estimated
07:52AM 31.1428 121.7924 167° South  Level Estimated
07:53AM 31.1428 121.7924 North  Level Estimated
07:54AM 31.1428 121.7924 North  Level Estimated
07:55AM 31.1428 121.7924 North  Level Estimated
07:56AM 31.1428 121.7924 North  Level Estimated
07:57AM 31.1428 121.7924 North  Level Estimated
07:58AM 31.1428 121.7924 North  Level Estimated
07:59AM 31.1428 121.7924 North  Level Estimated
08:00AM 31.1428 121.7924 North  Level Estimated
08:01AM 31.1428 121.7924 North  Level Estimated
08:02AM 31.1428 121.7924 North  Level Estimated
08:03AM 31.1428 121.7924 North  Level Estimated
08:04AM 31.1428 121.7924 North  Level Estimated
08:05AM 31.1428 121.7924 North  Level Estimated
08:06AM 31.1428 121.7924 North  Level Estimated
08:07AM 31.1428 121.7924 North  Level Estimated